Salisbury, Illinois
Current Conditions -  °F | °C
As of 6:52 AM on Tuesday 21 Oct 2014 (Local Time) from KSPI Reporting Station
Haze Haze  
Wind Chill: 39°   Ceiling: Unl
Heat Index: 39°   Visibility: 3mi
Dew Point: 36°   Wind: 0mph
Humidity: 89%   Direction: NA
Pressure: 30.1"   Gusts: NA
Location:  39.8458°N, 89.8743°W
Report Text: KSPI 211152Z 00000KT 3SM BR CLR 04/02 A3010 RMK AO2 SLP194 T00390022 10078 20039 53021
Loading
Personal Weather Stations






























Interactive Weather Map
Tropical Storm Tracking
New forecast layout! Learn more

10-Day Weather Forecast

Advertisements
Track Severe Weather on mobile